Surrey, North Dakota
Current Conditions -  °F | °C
As of 11:21 AM on Friday 19 Dec 2014 (Local Time) from KMOT Reporting Station
Haze Haze  
Wind Chill: 21°   Ceiling: 400
Heat Index: 28°   Visibility: 5mi
Dew Point: 26°   Wind: 7mph
Humidity: 92%   Direction: 230°SW
Pressure: 29.93"   Gusts: NA
Location:  48.24°N, 101.13°W
Report Text: KMOT 191721Z 23006KT 5SM BR OVC004 M02/M03 A2993 RMK AO2 T10221033
Loading
Personal Weather Stations






























Interactive Weather Map New forecast layout! Learn more

10-Day Weather Forecast

Advertisements
Track Severe Weather on mobile